createdAt,value
2019-03-30T00:02:17.525Z,100925.83
2019-03-30T00:04:44.770Z,100923.30
2019-03-30T00:07:11.650Z,100928.41
2019-03-30T00:09:38.884Z,100927.12
2019-03-30T00:12:06.157Z,100926.67
2019-03-30T00:14:33.419Z,100918.55
2019-03-30T00:17:00.729Z,100917.26
2019-03-30T00:19:34.802Z,100912.11
2019-03-30T00:21:57.600Z,100909.45
2019-03-30T00:24:24.496Z,100905.61
2019-03-30T00:26:51.817Z,100905.21
2019-03-30T00:29:18.823Z,100905.63
2019-03-30T00:31:46.097Z,100902.66
2019-03-30T00:34:12.964Z,100900.04
2019-03-30T00:36:40.194Z,100901.27
2019-03-30T00:39:07.461Z,100901.58
2019-03-30T00:41:34.439Z,100897.80
2019-03-30T00:44:02.684Z,100894.11
2019-03-30T00:46:29.927Z,100900.02
2019-03-30T00:48:57.177Z,100892.44
2019-03-30T00:51:24.069Z,100888.25
2019-03-30T00:53:51.386Z,100894.20
2019-03-30T00:56:18.734Z,100891.66
2019-03-30T00:58:45.988Z,100890.80
2019-03-30T01:01:13.253Z,100892.45
2019-03-30T01:03:41.834Z,100891.52
2019-03-30T01:06:09.798Z,100887.61
2019-03-30T01:08:36.687Z,100884.20
2019-03-30T01:11:03.652Z,100878.28
2019-03-30T01:13:30.526Z,100876.16
2019-03-30T01:15:57.553Z,100879.58
2019-03-30T01:18:24.837Z,100879.12
2019-03-30T01:20:51.778Z,100885.38
2019-03-30T01:23:18.687Z,100880.62
2019-03-30T01:25:47.218Z,100875.59
2019-03-30T01:28:14.543Z,100873.94
2019-03-30T01:30:41.465Z,100871.72
2019-03-30T01:33:08.505Z,100869.98
2019-03-30T01:35:35.440Z,100869.59
2019-03-30T01:38:02.370Z,100868.81
2019-03-30T01:40:29.340Z,100859.94
2019-03-30T01:42:56.303Z,100856.98
2019-03-30T01:45:23.263Z,100855.79
2019-03-30T01:47:50.636Z,100850.73
2019-03-30T01:50:18.161Z,100847.70
2019-03-30T01:52:45.550Z,100842.53
2019-03-30T01:55:12.807Z,100843.19
2019-03-30T01:57:39.785Z,100843.50
2019-03-30T02:00:07.106Z,100843.00
2019-03-30T02:02:34.041Z,100842.51
2019-03-30T02:05:00.916Z,100845.85
2019-03-30T02:07:27.857Z,100834.78
2019-03-30T02:09:54.752Z,100840.69
2019-03-30T02:12:21.739Z,100839.00
2019-03-30T02:14:48.961Z,100840.73
2019-03-30T02:17:16.129Z,100845.78
2019-03-30T02:19:43.017Z,100837.67
2019-03-30T02:22:09.973Z,100836.53
2019-03-30T02:24:37.279Z,100832.40
2019-03-30T02:27:04.236Z,100827.36
2019-03-30T02:29:31.165Z,100833.34
2019-03-30T02:31:58.038Z,100832.09
2019-03-30T02:34:24.988Z,100833.33
2019-03-30T02:36:51.965Z,100840.14
2019-03-30T02:39:19.564Z,100835.08
2019-03-30T02:41:46.425Z,100833.39
2019-03-30T02:44:13.657Z,100830.86
2019-03-30T02:46:40.552Z,100829.92
2019-03-30T02:49:07.525Z,100827.72
2019-03-30T02:51:34.815Z,100825.23
2019-03-30T02:54:01.801Z,100819.78
2019-03-30T02:56:29.750Z,100828.30
2019-03-30T02:58:57.912Z,100830.45
2019-03-30T03:01:24.856Z,100825.78
2019-03-30T03:03:51.813Z,100820.31
2019-03-30T03:06:18.827Z,100820.31
2019-03-30T03:08:46.117Z,100820.26
2019-03-30T03:11:13.440Z,100816.45
2019-03-30T03:13:40.700Z,100821.06
2019-03-30T03:16:07.615Z,100819.77
2019-03-30T03:18:34.563Z,100820.48
2019-03-30T03:21:07.908Z,100817.80
2019-03-30T03:23:30.419Z,100819.48
2019-03-30T03:25:57.570Z,100817.83
2019-03-30T03:28:24.533Z,100817.03
2019-03-30T03:30:51.510Z,100817.05
2019-03-30T03:33:18.727Z,100815.36
2019-03-30T03:35:45.962Z,100817.47
2019-03-30T03:38:12.926Z,100817.08
2019-03-30T03:40:39.883Z,100817.58
2019-03-30T03:43:06.855Z,100819.64
2019-03-30T03:45:34.077Z,100810.75
2019-03-30T03:48:01.067Z,100807.73
2019-03-30T03:50:28.358Z,100808.05
2019-03-30T03:52:55.336Z,100801.66
2019-03-30T03:55:22.287Z,100804.50
2019-03-30T03:57:49.263Z,100805.69
2019-03-30T04:00:16.186Z,100803.53
2019-03-30T04:02:43.125Z,100805.16
2019-03-30T04:05:10.286Z,100807.68
2019-03-30T04:07:37.247Z,100803.90
2019-03-30T04:10:04.225Z,100798.84
2019-03-30T04:12:31.168Z,100801.82
2019-03-30T04:14:58.189Z,100799.72
2019-03-30T04:17:25.397Z,100797.94
2019-03-30T04:19:52.381Z,100792.81
2019-03-30T04:22:19.257Z,100791.00
2019-03-30T04:24:46.243Z,100793.97
2019-03-30T04:27:13.480Z,100789.77
2019-03-30T04:29:40.471Z,100781.78
2019-03-30T04:32:07.759Z,100774.55
2019-03-30T04:34:35.052Z,100778.23
2019-03-30T04:37:02.311Z,100769.34
2019-03-30T04:39:29.272Z,100769.80
2019-03-30T04:41:56.252Z,100770.71
2019-03-30T04:44:23.270Z,100767.77
2019-03-30T04:46:51.219Z,100768.11
2019-03-30T04:49:18.267Z,100773.10
2019-03-30T04:51:56.968Z,100774.31
2019-03-30T04:54:13.904Z,100771.30
2019-03-30T04:56:41.207Z,100770.41
2019-03-30T04:59:08.474Z,100770.86
2019-03-30T05:01:35.422Z,100764.98
2019-03-30T05:04:02.324Z,100768.77
2019-03-30T05:06:30.340Z,100768.31
2019-03-30T05:08:57.271Z,100763.64
2019-03-30T05:11:24.533Z,100771.72
2019-03-30T05:13:51.403Z,100764.62
2019-03-30T05:16:18.296Z,100764.66
2019-03-30T05:18:45.576Z,100762.17
2019-03-30T05:21:12.830Z,100764.39
2019-03-30T05:23:40.087Z,100769.36
2019-03-30T05:26:07.320Z,100768.81
2019-03-30T05:28:34.193Z,100766.73
2019-03-30T05:31:01.090Z,100771.17
2019-03-30T05:33:28.373Z,100769.20
2019-03-30T05:35:56.318Z,100772.63
2019-03-30T05:38:23.182Z,100774.27
2019-03-30T05:40:50.065Z,100775.10
2019-03-30T05:43:17.022Z,100775.02
2019-03-30T05:45:43.961Z,100774.68
2019-03-30T05:48:11.210Z,100771.71
2019-03-30T05:50:38.524Z,100765.43
2019-03-30T05:53:05.673Z,100774.05
2019-03-30T05:55:32.933Z,100774.25
2019-03-30T05:57:59.917Z,100776.96
2019-03-30T06:00:27.265Z,100779.56
2019-03-30T06:02:54.273Z,100780.00
2019-03-30T06:05:21.526Z,100781.74
2019-03-30T06:07:48.397Z,100780.18
2019-03-30T06:10:15.630Z,100774.04
2019-03-30T06:12:42.601Z,100775.45
2019-03-30T06:15:09.544Z,100778.59
2019-03-30T06:17:36.494Z,100770.23
2019-03-30T06:20:03.421Z,100770.73
2019-03-30T06:22:40.285Z,100773.75
2019-03-30T06:24:59.207Z,100769.99
2019-03-30T06:27:26.153Z,100763.72
2019-03-30T06:29:53.341Z,100766.29
2019-03-30T06:32:20.269Z,100762.09
2019-03-30T06:34:47.217Z,100759.19
2019-03-30T06:37:14.184Z,100755.83
2019-03-30T06:39:41.537Z,100754.58
2019-03-30T06:42:08.505Z,100756.70
2019-03-30T06:44:35.818Z,100756.27
2019-03-30T06:47:03.154Z,100753.30
2019-03-30T06:49:30.132Z,100751.17
2019-03-30T06:51:57.179Z,100753.27
2019-03-30T06:54:24.149Z,100749.84
2019-03-30T06:56:51.236Z,100750.64
2019-03-30T06:59:18.189Z,100750.59
2019-03-30T07:01:45.134Z,100752.19
2019-03-30T07:04:12.281Z,100753.31
2019-03-30T07:06:39.208Z,100751.46
2019-03-30T07:09:06.610Z,100751.73
2019-03-30T07:11:33.761Z,100754.98
2019-03-30T07:14:00.947Z,100752.72
2019-03-30T07:16:27.945Z,100748.83
2019-03-30T07:18:54.987Z,100750.47
2019-03-30T07:21:21.968Z,100746.92
2019-03-30T07:23:48.964Z,100750.52
2019-03-30T07:26:15.830Z,100745.58
2019-03-30T07:28:42.725Z,100745.36
2019-03-30T07:31:09.955Z,100745.98
2019-03-30T07:33:36.925Z,100748.17
2019-03-30T07:36:05.270Z,100744.77
2019-03-30T07:38:32.417Z,100748.34
2019-03-30T07:40:59.569Z,100747.17
2019-03-30T07:43:26.557Z,100754.57
2019-03-30T07:45:53.552Z,100749.84
2019-03-30T07:48:20.717Z,100757.10
2019-03-30T07:50:47.865Z,100748.09
2019-03-30T07:53:25.802Z,100744.37
2019-03-30T07:55:43.332Z,100742.66
2019-03-30T07:58:10.729Z,100745.98
2019-03-30T08:00:38.060Z,100744.36
2019-03-30T08:03:05.010Z,100739.25
2019-03-30T08:05:32.312Z,100742.15
2019-03-30T08:07:59.285Z,100744.09
2019-03-30T08:10:26.205Z,100745.52
2019-03-30T08:12:53.450Z,100739.42
2019-03-30T08:15:20.417Z,100734.36
2019-03-30T08:17:47.319Z,100693.55
2019-03-30T08:20:14.486Z,100739.23
2019-03-30T08:22:41.655Z,100733.30
2019-03-30T08:25:09.005Z,100733.73
2019-03-30T08:27:35.890Z,100729.06
2019-03-30T08:30:03.192Z,100729.66
2019-03-30T08:32:30.092Z,100731.85
2019-03-30T08:34:57.298Z,100737.12
2019-03-30T08:37:24.273Z,100732.13
2019-03-30T08:39:51.597Z,100731.89
2019-03-30T08:42:18.534Z,100727.27
2019-03-30T08:44:45.429Z,100733.67
2019-03-30T08:47:12.671Z,100730.71
2019-03-30T08:49:39.616Z,100726.44
2019-03-30T08:52:06.775Z,100724.23
2019-03-30T08:54:33.980Z,100723.75
2019-03-30T08:57:00.869Z,100725.45
2019-03-30T08:59:27.805Z,100719.47
2019-03-30T09:01:54.705Z,100719.41
2019-03-30T09:04:21.663Z,100721.08
2019-03-30T09:06:48.582Z,100711.72
2019-03-30T09:09:15.480Z,100704.91
2019-03-30T09:11:43.604Z,100702.41
2019-03-30T09:14:10.836Z,100700.73
2019-03-30T09:16:37.826Z,100699.85
2019-03-30T09:19:06.316Z,100695.16
2019-03-30T09:21:33.390Z,100693.31
2019-03-30T09:24:09.714Z,100682.88
2019-03-30T09:26:29.309Z,100676.26
2019-03-30T09:28:56.263Z,100676.16
2019-03-30T09:31:23.138Z,100673.47
2019-03-30T09:33:50.339Z,100673.72
2019-03-30T09:36:17.585Z,100667.20
2019-03-30T09:38:44.893Z,100670.22
2019-03-30T09:41:12.453Z,100666.02
2019-03-30T09:43:39.756Z,100664.57
2019-03-30T09:46:07.222Z,100656.63
2019-03-30T09:48:34.573Z,100651.94
2019-03-30T09:51:01.722Z,100652.21
2019-03-30T09:53:28.873Z,100643.44
2019-03-30T09:55:55.753Z,100641.51
2019-03-30T09:58:23.097Z,100643.14
2019-03-30T10:00:50.052Z,100638.82
2019-03-30T10:03:17.380Z,100640.53
2019-03-30T10:05:45.740Z,100640.14
2019-03-30T10:08:12.994Z,100636.33
2019-03-30T10:10:40.593Z,100636.33
2019-03-30T10:13:07.936Z,100629.92
2019-03-30T10:15:35.220Z,100626.07
2019-03-30T10:18:02.535Z,100626.50
2019-03-30T10:20:29.766Z,100614.53
2019-03-30T10:22:56.958Z,100611.06
2019-03-30T10:25:24.209Z,100604.66
2019-03-30T10:27:51.144Z,100602.98
2019-03-30T10:30:18.116Z,100599.92
2019-03-30T10:32:44.993Z,100598.55
2019-03-30T10:35:11.938Z,100592.56
2019-03-30T10:37:38.823Z,100587.91
2019-03-30T10:40:05.808Z,100581.64
2019-03-30T10:42:32.718Z,100585.02
2019-03-30T10:44:59.697Z,100576.40
2019-03-30T10:47:26.558Z,100572.51
2019-03-30T10:49:53.468Z,100571.14
2019-03-30T10:52:20.413Z,100573.63
2019-03-30T10:54:52.983Z,100565.46
2019-03-30T10:57:16.281Z,100562.81
2019-03-30T10:59:43.576Z,100561.53
2019-03-30T11:02:11.842Z,100562.34
2019-03-30T11:04:38.748Z,100561.06
2019-03-30T11:07:06.070Z,100561.02
2019-03-30T11:09:33.608Z,100562.26
2019-03-30T11:12:00.966Z,100547.34
2019-03-30T11:14:28.247Z,100553.32
2019-03-30T11:16:55.461Z,100551.10
2019-03-30T11:19:22.340Z,100546.78
2019-03-30T11:21:49.284Z,100541.64
2019-03-30T11:24:16.150Z,100536.13
2019-03-30T11:26:43.073Z,100531.81
2019-03-30T11:29:09.954Z,100535.91
2019-03-30T11:31:36.864Z,100529.75
2019-03-30T11:34:05.507Z,100528.20
2019-03-30T11:36:32.892Z,100529.14
2019-03-30T11:38:59.927Z,100527.05
2019-03-30T11:41:26.838Z,100524.09
2019-03-30T11:43:53.775Z,100526.61
2019-03-30T11:46:20.739Z,100525.64
2019-03-30T11:48:47.674Z,100518.36
2019-03-30T11:51:14.851Z,100512.38
2019-03-30T11:53:42.130Z,100512.38
2019-03-30T11:56:09.457Z,100506.40
2019-03-30T11:58:36.430Z,100505.97
2019-03-30T12:01:03.670Z,100506.27
2019-03-30T12:03:30.644Z,100497.25
2019-03-30T12:05:57.542Z,100497.63
2019-03-30T12:08:24.808Z,100497.55
2019-03-30T12:10:51.992Z,100492.81
2019-03-30T12:13:18.904Z,100489.86
2019-03-30T12:15:46.166Z,100482.97
2019-03-30T12:18:13.141Z,100476.94
2019-03-30T12:20:40.007Z,100476.05
2019-03-30T12:23:06.908Z,100469.55
2019-03-30T12:25:35.985Z,100465.64
2019-03-30T12:28:03.029Z,100464.83
2019-03-30T12:30:29.915Z,100463.13
2019-03-30T12:32:57.134Z,100457.94
2019-03-30T12:35:25.248Z,100448.97
2019-03-30T12:37:52.233Z,100444.30
2019-03-30T12:40:19.261Z,100444.22
2019-03-30T12:42:47.681Z,100440.33
2019-03-30T12:45:14.548Z,100439.38
2019-03-30T12:47:41.781Z,100436.34
2019-03-30T12:50:08.678Z,100434.61
2019-03-30T12:52:35.998Z,100429.39
2019-03-30T12:55:02.974Z,100426.73
2019-03-30T12:57:29.917Z,100428.41
2019-03-30T13:02:25.713Z,100408.24
2019-03-30T13:04:52.726Z,100408.20
2019-03-30T13:07:19.670Z,100407.25
2019-03-30T13:09:46.838Z,100406.34
2019-03-30T13:12:13.713Z,100395.94
2019-03-30T13:14:40.581Z,100398.70
2019-03-30T13:17:07.560Z,100397.20
2019-03-30T13:19:34.444Z,100388.12
2019-03-30T13:22:01.984Z,100387.55
2019-03-30T13:24:28.856Z,100384.88
2019-03-30T13:26:56.096Z,100378.51
2019-03-30T13:29:25.988Z,100382.50
2019-03-30T13:31:53.252Z,100377.62
2019-03-30T13:34:20.257Z,100372.06
2019-03-30T13:36:47.549Z,100380.09
2019-03-30T13:39:14.425Z,100369.83
2019-03-30T13:41:41.420Z,100369.34
2019-03-30T13:44:08.374Z,100359.45
2019-03-30T13:46:35.305Z,100357.31
2019-03-30T13:49:02.235Z,100358.98
2019-03-30T13:51:29.117Z,100356.84
2019-03-30T13:53:56.006Z,100356.36
2019-03-30T13:56:22.899Z,100348.66
2019-03-30T13:58:50.270Z,100344.32
2019-03-30T14:01:17.214Z,100344.66
2019-03-30T14:03:44.358Z,100344.17
2019-03-30T14:06:11.613Z,100333.80
2019-03-30T14:08:38.802Z,100336.16
2019-03-30T14:11:05.776Z,100333.42
2019-03-30T14:13:33.087Z,100328.62
2019-03-30T14:16:00.410Z,100322.99
2019-03-30T14:18:27.305Z,100329.27
2019-03-30T14:20:54.523Z,100323.56
2019-03-30T14:23:21.877Z,100320.45
2019-03-30T14:25:49.011Z,100310.99
2019-03-30T14:28:16.271Z,100317.42
2019-03-30T14:30:43.144Z,100315.27
2019-03-30T14:33:10.332Z,100304.98
2019-03-30T14:35:37.652Z,100296.75
2019-03-30T14:38:04.602Z,100297.55
2019-03-30T14:40:31.499Z,100291.98
2019-03-30T14:42:58.653Z,100288.50
2019-03-30T14:45:25.921Z,100287.16
2019-03-30T14:47:53.181Z,100286.78
2019-03-30T14:50:20.163Z,100288.45
2019-03-30T14:52:47.477Z,100280.69
2019-03-30T14:55:14.818Z,100273.77
2019-03-30T14:57:41.973Z,100273.33
2019-03-30T15:00:08.870Z,100269.48
2019-03-30T15:02:36.281Z,100267.29
2019-03-30T15:05:03.218Z,100264.72
2019-03-30T15:07:30.395Z,100264.72
2019-03-30T15:09:57.621Z,100266.86
2019-03-30T15:12:25.582Z,100264.17
2019-03-30T15:14:53.085Z,100262.47
2019-03-30T15:17:19.978Z,100259.03
2019-03-30T15:19:46.928Z,100258.98
2019-03-30T15:22:13.868Z,100254.69
2019-03-30T15:24:40.793Z,100253.78
2019-03-30T15:27:09.018Z,100245.63
2019-03-30T15:29:36.286Z,100253.72
2019-03-30T15:32:03.629Z,100247.73
2019-03-30T15:34:30.882Z,100246.07
2019-03-30T15:36:58.358Z,100246.92
2019-03-30T15:39:25.235Z,100244.73
2019-03-30T15:41:52.121Z,100241.72
2019-03-30T15:44:19.481Z,100237.02
2019-03-30T15:46:46.739Z,100239.48
2019-03-30T15:49:13.654Z,100233.90
2019-03-30T15:51:40.597Z,100225.66
2019-03-30T15:54:07.469Z,100228.70
2019-03-30T15:56:34.365Z,100217.14
2019-03-30T15:59:01.348Z,100217.89
2019-03-30T16:01:28.315Z,100219.59
2019-03-30T16:03:55.563Z,100222.95
2019-03-30T16:06:22.724Z,100218.62
2019-03-30T16:08:49.662Z,100218.69
2019-03-30T16:11:16.918Z,100216.96
2019-03-30T16:13:43.894Z,100218.19
2019-03-30T16:16:10.889Z,100213.05
2019-03-30T16:18:38.058Z,100212.61
2019-03-30T16:21:05.304Z,100213.37
2019-03-30T16:23:32.614Z,100215.89
2019-03-30T16:25:59.908Z,100215.39
2019-03-30T16:28:26.873Z,100212.44
2019-03-30T16:30:53.853Z,100214.22
2019-03-30T16:33:20.729Z,100218.45
2019-03-30T16:35:48.120Z,100216.30
2019-03-30T16:38:15.004Z,100210.36
2019-03-30T16:40:41.889Z,100211.27
2019-03-30T16:43:08.831Z,100215.56
2019-03-30T16:45:35.703Z,100210.86
2019-03-30T16:48:03.024Z,100211.39
2019-03-30T16:50:29.917Z,100212.73
2019-03-30T16:52:57.229Z,100215.32
2019-03-30T16:55:24.127Z,100211.99
2019-03-30T16:57:51.013Z,100215.05
2019-03-30T17:00:19.057Z,100209.06
2019-03-30T17:02:46.015Z,100204.77
2019-03-30T17:05:12.977Z,100204.51
2019-03-30T17:07:39.975Z,100205.00
2019-03-30T17:10:06.921Z,100203.72
2019-03-30T17:12:34.227Z,100204.09
2019-03-30T17:15:01.491Z,100208.06
2019-03-30T17:17:29.368Z,100206.40
2019-03-30T17:19:56.605Z,100206.52
2019-03-30T17:22:23.961Z,100207.55
2019-03-30T17:24:50.833Z,100203.43
2019-03-30T17:27:18.060Z,100209.11
2019-03-30T17:29:45.092Z,100209.77
2019-03-30T17:32:12.062Z,100205.20
2019-03-30T17:34:39.315Z,100202.41
2019-03-30T17:37:06.263Z,100205.09
2019-03-30T17:39:33.521Z,100200.55
2019-03-30T17:42:00.721Z,100204.56
2019-03-30T17:44:27.612Z,100209.34
2019-03-30T17:46:54.592Z,100209.06
2019-03-30T17:49:21.553Z,100208.27
2019-03-30T17:51:48.417Z,100211.32
2019-03-30T17:54:15.328Z,100210.14
2019-03-30T17:56:42.299Z,100214.53
2019-03-30T17:59:09.257Z,100215.54
2019-03-30T18:01:36.534Z,100224.68
2019-03-30T18:04:03.774Z,100218.05
2019-03-30T18:06:30.645Z,100221.20
2019-03-30T18:08:57.580Z,100219.69
2019-03-30T18:11:24.526Z,100221.17
2019-03-30T18:13:51.494Z,100230.23
2019-03-30T18:16:18.454Z,100223.16
2019-03-30T18:18:45.679Z,100227.97
2019-03-30T18:21:12.664Z,100230.67
2019-03-30T18:23:39.653Z,100229.92
2019-03-30T18:26:06.843Z,100224.89
2019-03-30T18:28:34.147Z,100227.55
2019-03-30T18:31:01.647Z,100231.50
2019-03-30T18:33:28.985Z,100228.56
2019-03-30T18:35:55.910Z,100229.94
2019-03-30T18:38:22.857Z,100231.78
2019-03-30T18:40:50.048Z,100237.39
2019-03-30T18:43:17.259Z,100240.05
2019-03-30T18:45:44.514Z,100241.48
2019-03-30T18:48:11.994Z,100240.71
2019-03-30T18:50:39.232Z,100241.63
2019-03-30T18:53:06.194Z,100237.44
2019-03-30T18:55:33.417Z,100238.77
2019-03-30T18:58:00.585Z,100241.85
2019-03-30T19:00:28.143Z,100237.20
2019-03-30T19:02:55.176Z,100242.33
2019-03-30T19:05:22.433Z,100237.38
2019-03-30T19:07:49.410Z,100239.95
2019-03-30T19:10:16.628Z,100235.62
2019-03-30T19:12:43.503Z,100238.57
2019-03-30T19:15:10.751Z,100232.67
2019-03-30T19:17:37.625Z,100234.39
2019-03-30T19:20:04.950Z,100234.02
2019-03-30T19:22:31.931Z,100236.28
2019-03-30T19:24:58.859Z,100227.89
2019-03-30T19:27:25.834Z,100227.98
2019-03-30T19:29:53.129Z,100227.22
2019-03-30T19:32:20.066Z,100231.19
2019-03-30T19:34:47.205Z,100226.91
2019-03-30T19:37:14.479Z,100232.34
2019-03-30T19:39:41.433Z,100235.66
2019-03-30T19:42:08.669Z,100234.38
2019-03-30T19:44:35.939Z,100227.45
2019-03-30T19:47:02.874Z,100228.31
2019-03-30T19:49:29.741Z,100234.64
2019-03-30T19:51:56.978Z,100239.38
2019-03-30T19:54:24.317Z,100233.44
2019-03-30T19:56:51.285Z,100230.97
2019-03-30T19:59:18.222Z,100225.08
2019-03-30T20:01:45.161Z,100223.50
2019-03-30T20:04:12.031Z,100223.20
2019-03-30T20:06:39.253Z,100229.70
2019-03-30T20:09:06.513Z,100228.93
2019-03-30T20:11:35.021Z,100229.79
2019-03-30T20:14:01.981Z,100229.02
2019-03-30T20:16:29.283Z,100232.44
2019-03-30T20:19:11.579Z,100229.88
2019-03-30T20:21:24.811Z,100225.19
2019-03-30T20:23:51.965Z,100218.44
2019-03-30T20:26:18.933Z,100224.88
2019-03-30T20:28:45.895Z,100216.81
2019-03-30T20:31:12.832Z,100218.99
2019-03-30T20:33:39.794Z,100215.23
2019-03-30T20:36:09.449Z,100214.94
2019-03-30T20:38:36.403Z,100215.16
2019-03-30T20:41:03.375Z,100209.08
2019-03-30T20:43:30.714Z,100214.03
2019-03-30T20:45:58.802Z,100210.74
2019-03-30T20:48:25.668Z,100205.47
2019-03-30T20:50:52.896Z,100210.67
2019-03-30T20:53:19.792Z,100207.34
2019-03-30T20:55:47.076Z,100206.14
2019-03-30T20:58:14.315Z,100207.11
2019-03-30T21:00:41.465Z,100214.02
2019-03-30T21:03:08.623Z,100211.61
2019-03-30T21:05:35.518Z,100202.80
2019-03-30T21:08:03.451Z,100206.36
2019-03-30T21:10:30.422Z,100200.82
2019-03-30T21:12:57.387Z,100205.09
2019-03-30T21:15:24.280Z,100204.03
2019-03-30T21:17:51.239Z,100206.20
2019-03-30T21:20:18.480Z,100199.41
2019-03-30T21:22:45.442Z,100200.41
2019-03-30T21:25:12.662Z,100200.80
2019-03-30T21:27:39.545Z,100203.29
2019-03-30T21:30:06.778Z,100199.06
2019-03-30T21:32:34.742Z,100197.43
2019-03-30T21:35:01.993Z,100203.89
2019-03-30T21:37:29.993Z,100206.52
2019-03-30T21:39:56.865Z,100204.92
2019-03-30T21:42:23.757Z,100199.06
2019-03-30T21:44:50.728Z,100197.44
2019-03-30T21:47:17.688Z,100198.42
2019-03-30T21:49:44.999Z,100198.10
2019-03-30T21:52:12.238Z,100194.05
2019-03-30T21:54:39.502Z,100189.98
2019-03-30T21:57:06.759Z,100197.30
2019-03-30T21:59:33.753Z,100196.47
2019-03-30T22:02:00.708Z,100200.28
2019-03-30T22:04:27.736Z,100196.44
2019-03-30T22:06:54.633Z,100196.21
2019-03-30T22:09:21.524Z,100187.34
2019-03-30T22:11:49.144Z,100191.11
2019-03-30T22:14:16.014Z,100186.95
2019-03-30T22:16:42.961Z,100183.00
2019-03-30T22:19:09.907Z,100187.69
2019-03-30T22:21:36.767Z,100185.56
2019-03-30T22:24:04.288Z,100183.58
2019-03-30T22:26:31.258Z,100185.52
2019-03-30T22:28:58.210Z,100184.02
2019-03-30T22:31:25.144Z,100183.66
2019-03-30T22:33:52.031Z,100179.01
2019-03-30T22:36:19.321Z,100174.73
2019-03-30T22:38:46.316Z,100175.01
2019-03-30T22:41:13.198Z,100171.17
2019-03-30T22:43:40.207Z,100166.95
2019-03-30T22:46:07.751Z,100176.83
2019-03-30T22:48:34.905Z,100165.94
2019-03-30T22:51:02.226Z,100161.83
2019-03-30T22:53:30.513Z,100160.72
2019-03-30T22:55:57.421Z,100163.61
2019-03-30T22:58:24.289Z,100164.81
2019-03-30T23:00:51.178Z,100168.98
2019-03-30T23:03:18.702Z,100167.61
2019-03-30T23:05:46.056Z,100167.16
2019-03-30T23:08:13.035Z,100161.27
2019-03-30T23:10:39.902Z,100161.66
2019-03-30T23:13:07.093Z,100163.02
2019-03-30T23:15:34.340Z,100166.42
2019-03-30T23:18:02.309Z,100156.30
2019-03-30T23:20:29.301Z,100156.22
2019-03-30T23:22:56.238Z,100154.52
2019-03-30T23:25:23.124Z,100157.95
2019-03-30T23:27:50.022Z,100151.23
2019-03-30T23:30:16.981Z,100150.41
2019-03-30T23:32:43.962Z,100154.63
2019-03-30T23:35:10.835Z,100151.31
2019-03-30T23:37:37.704Z,100157.30
2019-03-30T23:40:04.581Z,100144.94
2019-03-30T23:42:31.769Z,100145.84
2019-03-30T23:44:58.655Z,100143.72
2019-03-30T23:47:25.656Z,100139.55
2019-03-30T23:49:52.532Z,100138.39
2019-03-30T23:52:19.482Z,100143.09
2019-03-30T23:54:46.437Z,100143.83
2019-03-30T23:57:13.388Z,100140.37
2019-03-30T23:59:40.695Z,100143.44
